首页
METAR-TAF:

METAR-TAF

机场 :

西安咸阳国际机场

西安, 中华人民共和国

纬度: 34-26N, 经度: 108-45E, 海拔: 479米

当前天气观测

该预报发布于1小时和13分钟前的10:00 UTC
风速2节,风向多变
温度 15°C
湿度 55%
气压 1013 hPa
能見度: 6000

METAR: ZLXY 151000Z VRB01MPS 6000 NSC 15/06 Q1013 NOSIG

时间: 19:13 (11:13 UTC)

预报

该预报发布于8小时和11分钟前的03:02 UTC
预报有效从15日的 06点(UTC)到 16日的 06点(UTC)
风速6节,风向南转西南
能見度: 6000

TAF: ZLXY 150302Z 1506/1606 21003MPS 6000 NSC TX18/1507Z TN03/1522Z

超过4000个机场的气象观测和天气预报(METAR&TAF报告)。

可查询的气象台以黄色和红色小点在地图上表示。

将鼠标移到小点上方,可查看气象台名称。

然后点击查看天气观测和预报。

如需切换地图:点击带黑十字的绿色按钮放大地图;点击带横线的绿色按钮缩小地图;或者点击绿色箭头查看邻近地区的地图。


METAR-TAF: